Time;durP1;ratioP1;P1;durP2;ratioP2;P2;SDS_P1;SDS_P2;PMS_P1;PMS_P2;Temp;Humidity;BMP_temperature;BMP_pressure;BME280_temperature;BME280_humidity;BME280_pressure;Samples;Min_cycle;Max_cycle;Signal;HPM_P1;HPM_P2
2021/04/16 00:02:10;;;;;;;2.53;1.80;;;3.80;99.90;;;;;;5105835;28;20700;-76
2021/04/16 00:04:55;;;;;;;6.73;1.97;;;3.80;99.90;;;;;;5110701;28;20241;-75
2021/04/16 00:07:39;;;;;;;7.07;2.30;;;3.80;99.90;;;;;;5096588;28;20213;-75
2021/04/16 00:10:32;;;;;;;4.67;2.13;;;3.60;99.90;;;;;;5103298;28;20205;-75
2021/04/16 00:13:19;;;;;;;5.70;2.37;;;3.60;99.90;;;;;;5103059;28;20207;-76
2021/04/16 00:16:06;;;;;;;3.77;2.10;;;3.60;99.90;;;;;;5104289;28;20217;-75
2021/04/16 00:18:51;;;;;;;4.73;2.10;;;3.50;99.90;;;;;;5097256;28;20237;-75
2021/04/16 00:21:37;;;;;;;3.03;1.97;;;3.50;99.90;;;;;;5096394;28;20302;-75
2021/04/16 00:24:22;;;;;;;4.60;2.40;;;3.40;99.90;;;;;;5098091;28;20209;-76
2021/04/16 00:27:07;;;;;;;6.83;2.70;;;3.40;99.90;;;;;;5109345;28;20706;-76
2021/04/16 00:29:52;;;;;;;3.47;2.07;;;3.30;99.90;;;;;;5104743;28;20221;-75
2021/04/16 00:32:38;;;;;;;4.20;2.10;;;3.40;99.90;;;;;;5093101;28;20268;-75
2021/04/16 00:35:22;;;;;;;3.93;2.10;;;3.20;99.90;;;;;;5093897;28;20215;-76
2021/04/16 00:38:09;;;;;;;5.10;2.43;;;3.20;99.90;;;;;;5096113;28;20300;-76
2021/04/16 00:40:56;;;;;;;4.80;2.47;;;3.20;99.90;;;;;;5104878;28;20213;-76
2021/04/16 00:43:44;;;;;;;4.30;2.27;;;3.10;99.90;;;;;;5097106;28;20284;-76
2021/04/16 00:46:35;;;;;;;3.60;2.40;;;3.00;99.90;;;;;;5093305;28;21143;-76
2021/04/16 00:49:25;;;;;;;4.50;2.37;;;3.00;99.90;;;;;;5100503;28;20228;-75
2021/04/16 00:52:12;;;;;;;3.53;2.10;;;2.90;99.90;;;;;;5102023;28;20197;-75
2021/04/16 00:54:57;;;;;;;7.90;2.60;;;2.90;99.90;;;;;;5103531;28;20248;-76
2021/04/16 00:57:42;;;;;;;4.23;2.40;;;2.80;99.90;;;;;;5095812;28;20205;-75
2021/04/16 01:00:27;;;;;;;6.43;2.40;;;2.70;99.90;;;;;;5096780;28;20209;-76
2021/04/16 01:03:12;;;;;;;6.40;2.70;;;2.70;99.90;;;;;;5108565;28;20217;-75
2021/04/16 01:06:01;;;;;;;5.77;2.60;;;2.60;99.90;;;;;;5106487;28;20246;-75
2021/04/16 01:08:46;;;;;;;5.87;2.40;;;2.60;99.90;;;;;;5116477;28;20248;-76
2021/04/16 01:11:30;;;;;;;6.00;2.53;;;2.50;99.90;;;;;;5101106;28;20210;-76
2021/04/16 01:14:17;;;;;;;6.43;2.40;;;2.40;99.90;;;;;;5107494;28;20692;-76
2021/04/16 01:17:03;;;;;;;3.83;2.17;;;2.40;99.90;;;;;;5096499;28;20255;-75
2021/04/16 01:19:52;;;;;;;4.67;2.20;;;2.30;99.90;;;;;;5106174;28;20264;-76
2021/04/16 01:22:45;;;;;;;6.73;2.20;;;2.20;99.90;;;;;;5094629;28;20244;-76
2021/04/16 01:25:31;;;;;;;6.00;2.50;;;2.20;99.90;;;;;;5094503;28;20214;-75
2021/04/16 01:28:18;;;;;;;5.50;2.27;;;2.10;99.90;;;;;;5103073;28;20590;-76
2021/04/16 01:31:08;;;;;;;5.27;2.47;;;2.00;99.90;;;;;;5106338;28;20216;-75
2021/04/16 01:33:53;;;;;;;6.87;2.70;;;1.90;99.90;;;;;;5099350;28;20209;-76
2021/04/16 01:36:38;;;;;;;9.83;2.97;;;1.90;99.90;;;;;;5094812;28;20225;-75
2021/04/16 01:39:26;;;;;;;5.40;2.57;;;1.80;99.90;;;;;;5103524;28;20718;-76
2021/04/16 01:42:12;;;;;;;4.57;2.40;;;1.80;99.90;;;;;;5095036;28;20336;-76
2021/04/16 01:44:57;;;;;;;5.17;2.70;;;1.70;99.90;;;;;;5090202;28;20205;-76
2021/04/16 01:47:41;;;;;;;3.87;2.40;;;1.70;99.90;;;;;;5094248;28;20582;-76
2021/04/16 01:50:28;;;;;;;7.00;2.60;;;1.60;99.90;;;;;;5098483;28;20569;-75
2021/04/16 01:53:13;;;;;;;5.27;2.33;;;1.60;99.90;;;;;;5098968;28;20569;-75
2021/04/16 01:55:58;;;;;;;4.83;2.20;;;1.50;99.90;;;;;;5092788;28;20209;-75
2021/04/16 01:58:44;;;;;;;5.60;2.90;;;1.60;99.90;;;;;;5102941;28;20217;-76
2021/04/16 02:01:28;;;;;;;6.30;2.47;;;1.50;99.90;;;;;;5104960;28;20260;-76
2021/04/16 02:04:15;;;;;;;5.97;2.77;;;1.40;99.90;;;;;;5093409;28;20209;-76
2021/04/16 02:07:03;;;;;;;5.17;2.50;;;1.40;99.90;;;;;;5092824;28;20209;-75
2021/04/16 02:09:48;;;;;;;5.30;2.93;;;1.30;99.90;;;;;;5100037;28;20282;-76
2021/04/16 02:12:32;;;;;;;4.80;2.50;;;1.30;99.90;;;;;;5093738;28;20213;-75
2021/04/16 02:15:18;;;;;;;6.97;2.73;;;1.30;99.90;;;;;;5104275;28;20259;-75
2021/04/16 02:18:04;;;;;;;6.63;2.83;;;1.20;99.90;;;;;;5098629;28;20215;-76
2021/04/16 02:20:49;;;;;;;5.90;2.70;;;1.20;99.90;;;;;;5107412;28;20212;-75
2021/04/16 02:23:36;;;;;;;4.97;2.73;;;1.20;99.90;;;;;;5093480;28;20209;-75
2021/04/16 02:26:21;;;;;;;6.07;2.57;;;1.10;99.90;;;;;;5096625;28;20201;-75
2021/04/16 02:29:07;;;;;;;5.10;2.83;;;1.10;99.90;;;;;;5096038;28;20225;-76
2021/04/16 02:31:53;;;;;;;6.93;3.13;;;1.10;99.90;;;;;;5105733;28;20284;-75
2021/04/16 02:34:38;;;;;;;5.93;2.83;;;1.10;99.90;;;;;;5111850;28;20205;-75
2021/04/16 02:37:23;;;;;;;7.00;2.93;;;1.00;99.90;;;;;;5107369;28;20241;-75
2021/04/16 02:40:12;;;;;;;6.50;3.13;;;1.00;99.90;;;;;;5101105;28;20216;-75
2021/04/16 02:42:57;;;;;;;7.13;2.93;;;1.00;99.90;;;;;;5095688;28;20902;-75
2021/04/16 02:45:41;;;;;;;5.13;2.63;;;0.90;99.90;;;;;;5100623;28;20743;-75
2021/04/16 02:48:27;;;;;;;6.33;2.73;;;0.90;99.90;;;;;;5092182;28;20726;-75
2021/04/16 02:51:12;;;;;;;6.97;2.83;;;0.90;99.90;;;;;;5099108;28;20580;-75
2021/04/16 02:53:57;;;;;;;7.87;3.17;;;0.90;99.90;;;;;;5103995;28;20274;-75
2021/04/16 02:56:42;;;;;;;6.90;3.30;;;0.80;99.90;;;;;;5090255;28;20252;-75
2021/04/16 02:59:30;;;;;;;6.60;2.77;;;0.80;99.90;;;;;;5090905;28;20275;-76
2021/04/16 03:02:15;;;;;;;8.63;3.37;;;0.80;99.90;;;;;;5100900;28;20251;-75
2021/04/16 03:05:00;;;;;;;7.23;3.07;;;0.80;99.90;;;;;;5094975;28;20196;-75
2021/04/16 03:07:45;;;;;;;5.40;2.97;;;0.70;99.90;;;;;;5097832;28;20209;-75
2021/04/16 03:10:32;;;;;;;7.10;3.60;;;0.70;99.90;;;;;;5111356;28;20212;-75
2021/04/16 03:13:18;;;;;;;5.27;2.80;;;0.70;99.90;;;;;;5095359;28;20263;-75
2021/04/16 03:16:04;;;;;;;5.13;2.73;;;0.70;99.90;;;;;;5099555;28;20244;-75
2021/04/16 03:18:49;;;;;;;6.43;3.00;;;0.60;99.90;;;;;;5098505;28;20232;-75
2021/04/16 03:21:34;;;;;;;7.47;3.20;;;0.60;99.90;;;;;;5098556;28;20258;-75
2021/04/16 03:24:19;;;;;;;7.67;3.07;;;0.60;99.90;;;;;;5103676;28;20228;-74
2021/04/16 03:27:06;;;;;;;7.40;3.40;;;0.60;99.90;;;;;;5112738;28;20205;-75
2021/04/16 03:29:51;;;;;;;9.43;3.63;;;0.50;99.90;;;;;;5113050;28;20225;-75
2021/04/16 03:32:35;;;;;;;6.63;3.30;;;0.50;99.90;;;;;;5113090;28;20228;-75
2021/04/16 03:35:21;;;;;;;7.70;3.50;;;0.50;99.90;;;;;;5104456;28;20200;-75
2021/04/16 03:38:07;;;;;;;7.90;3.33;;;0.50;99.90;;;;;;5100247;28;20221;-75
2021/04/16 03:40:52;;;;;;;7.87;3.37;;;0.50;99.90;;;;;;5106689;28;20196;-75
2021/04/16 03:43:36;;;;;;;6.00;3.23;;;0.50;99.90;;;;;;5106757;28;20212;-75
2021/04/16 03:46:21;;;;;;;7.17;2.87;;;0.40;99.90;;;;;;5095091;28;20340;-75
2021/04/16 03:49:06;;;;;;;6.63;3.50;;;0.50;99.90;;;;;;5103933;28;20267;-75
2021/04/16 03:51:54;;;;;;;7.13;3.13;;;0.40;99.90;;;;;;5106786;28;20213;-75
2021/04/16 03:54:39;;;;;;;7.73;3.57;;;0.40;99.90;;;;;;5099075;28;22287;-75
2021/04/16 03:57:24;;;;;;;6.90;3.70;;;0.40;99.90;;;;;;5101331;28;20683;-75
2021/04/16 04:00:12;;;;;;;5.57;3.13;;;0.40;99.90;;;;;;5107519;28;20200;-75
2021/04/16 04:02:58;;;;;;;5.37;3.40;;;0.40;99.90;;;;;;5107928;28;20258;-75
2021/04/16 04:05:42;;;;;;;7.17;3.17;;;0.40;99.90;;;;;;5101354;28;20208;-75
2021/04/16 04:08:28;;;;;;;6.23;3.30;;;0.30;99.90;;;;;;5108077;28;20251;-75
2021/04/16 04:11:14;;;;;;;6.70;3.00;;;0.30;99.90;;;;;;5104260;28;20236;-75
2021/04/16 04:13:59;;;;;;;8.83;3.80;;;0.30;99.90;;;;;;5104221;28;20213;-75
2021/04/16 04:16:51;;;;;;;9.37;3.67;;;0.30;99.90;;;;;;5108076;28;20651;-75
2021/04/16 04:19:36;;;;;;;6.80;3.37;;;0.30;99.90;;;;;;5107365;28;20216;-75
2021/04/16 04:22:21;;;;;;;6.40;3.17;;;0.30;99.90;;;;;;5109458;28;20259;-75
2021/04/16 04:25:07;;;;;;;6.33;3.10;;;0.30;99.90;;;;;;5107761;28;20200;-75
2021/04/16 04:27:54;;;;;;;7.30;3.57;;;0.20;99.90;;;;;;5107693;28;20244;-75
2021/04/16 04:30:39;;;;;;;9.10;3.53;;;0.20;99.90;;;;;;5104841;28;20207;-75
2021/04/16 04:33:25;;;;;;;8.30;3.83;;;0.20;99.90;;;;;;5105168;28;20226;-75
2021/04/16 04:36:09;;;;;;;6.90;3.90;;;0.20;99.90;;;;;;5091957;28;20224;-75
2021/04/16 04:38:54;;;;;;;10.33;3.70;;;0.20;99.90;;;;;;5101686;28;20318;-75
2021/04/16 04:41:39;;;;;;;8.93;3.53;;;0.10;99.90;;;;;;5103619;28;20703;-75
2021/04/16 04:44:25;;;;;;;7.03;3.80;;;0.10;99.90;;;;;;5105603;28;20216;-75
2021/04/16 04:47:10;;;;;;;7.77;3.77;;;0.10;99.90;;;;;;5108149;28;20199;-75
2021/04/16 04:49:55;;;;;;;7.23;4.00;;;0.10;99.90;;;;;;5104142;28;20225;-75
2021/04/16 04:52:41;;;;;;;9.40;4.43;;;0.10;99.90;;;;;;5094633;28;20363;-75
2021/04/16 04:55:28;;;;;;;10.43;4.13;;;0.10;99.90;;;;;;5101431;28;20205;-75
2021/04/16 04:58:13;;;;;;;7.40;4.13;;;0.10;99.90;;;;;;5101539;28;20232;-75
2021/04/16 05:00:59;;;;;;;9.80;5.03;;;0.10;99.90;;;;;;5106353;28;20283;-75
2021/04/16 05:03:44;;;;;;;11.17;4.70;;;0.20;99.90;;;;;;5105995;28;20252;-75
2021/04/16 05:06:28;;;;;;;11.23;4.40;;;0.10;99.90;;;;;;5107551;28;20208;-75
2021/04/16 05:09:13;;;;;;;9.77;4.40;;;0.10;99.90;;;;;;5107617;28;20725;-75
2021/04/16 05:11:58;;;;;;;7.80;4.57;;;0.10;99.90;;;;;;5104750;28;20923;-75
2021/04/16 05:14:43;;;;;;;10.03;4.73;;;0.10;99.90;;;;;;5102393;28;20205;-75
2021/04/16 05:17:29;;;;;;;11.07;4.27;;;0.10;99.90;;;;;;5093110;28;20220;-75
2021/04/16 05:20:15;;;;;;;8.80;4.33;;;0.10;99.90;;;;;;5091734;28;20213;-75
2021/04/16 05:23:00;;;;;;;11.80;4.90;;;0.10;99.90;;;;;;5100615;28;20759;-75
2021/04/16 05:25:45;;;;;;;9.17;4.70;;;0.10;99.90;;;;;;5088479;28;20201;-75
2021/04/16 05:28:30;;;;;;;11.20;4.90;;;0.10;99.90;;;;;;5090322;28;20286;-75
2021/04/16 05:31:14;;;;;;;7.33;4.37;;;0.20;99.90;;;;;;5095485;28;20209;-75
2021/04/16 05:34:00;;;;;;;10.50;4.83;;;0.10;99.90;;;;;;5097814;28;20296;-75
2021/04/16 05:36:45;;;;;;;9.67;5.10;;;0.20;99.90;;;;;;5103465;28;20207;-74
2021/04/16 05:39:29;;;;;;;10.83;5.47;;;0.20;99.90;;;;;;5104676;28;20259;-75
2021/04/16 05:42:14;;;;;;;10.70;5.73;;;0.20;99.90;;;;;;5105390;28;20286;-75
2021/04/16 05:45:00;;;;;;;10.13;5.70;;;0.20;99.90;;;;;;5093844;28;20209;-77
2021/04/16 05:47:45;;;;;;;12.23;5.60;;;0.20;99.90;;;;;;5093881;28;20212;-77
2021/04/16 05:50:31;;;;;;;11.17;5.23;;;0.20;99.90;;;;;;5098830;28;20280;-75
2021/04/16 05:53:16;;;;;;;13.33;5.87;;;0.30;99.90;;;;;;5095983;28;20213;-75
2021/04/16 05:56:01;;;;;;;11.63;5.77;;;0.30;99.90;;;;;;5092236;28;20236;-75
2021/04/16 05:58:45;;;;;;;13.37;5.90;;;0.30;99.90;;;;;;5098830;28;20232;-75
2021/04/16 06:01:32;;;;;;;12.60;6.37;;;0.40;99.90;;;;;;5104986;28;20204;-75
2021/04/16 06:04:19;;;;;;;11.63;6.07;;;0.40;99.90;;;;;;5107052;28;20253;-75
2021/04/16 06:07:04;;;;;;;15.37;6.30;;;0.40;99.90;;;;;;5107307;28;20291;-75
2021/04/16 06:09:51;;;;;;;14.37;6.40;;;0.50;99.90;;;;;;5103309;28;20282;-75
2021/04/16 06:12:37;;;;;;;15.40;6.87;;;0.50;99.90;;;;;;5105819;28;20261;-75
2021/04/16 06:15:24;;;;;;;13.43;6.47;;;0.50;99.90;;;;;;5103042;28;20282;-75
2021/04/16 06:18:09;;;;;;;14.63;6.67;;;0.60;99.90;;;;;;5099198;28;20332;-75
2021/04/16 06:20:54;;;;;;;16.10;6.97;;;0.60;99.90;;;;;;5100784;28;20682;-75
2021/04/16 06:23:40;;;;;;;16.43;7.90;;;0.70;99.90;;;;;;5100277;28;20209;-76
2021/04/16 06:26:25;;;;;;;20.93;8.60;;;0.70;99.90;;;;;;5101375;28;20286;-76
2021/04/16 06:29:10;;;;;;;22.63;10.00;;;0.80;99.90;;;;;;5104047;28;20667;-75
2021/04/16 06:31:55;;;;;;;20.73;11.00;;;0.90;99.90;;;;;;5090932;28;20248;-76
2021/04/16 06:34:40;;;;;;;27.37;12.57;;;1.10;99.90;;;;;;5092640;28;20213;-76
2021/04/16 06:37:25;;;;;;;25.97;13.77;;;1.30;99.90;;;;;;5090363;28;20247;-76
2021/04/16 06:40:12;;;;;;;31.20;15.53;;;1.40;99.90;;;;;;5091254;28;20217;-76
2021/04/16 06:42:59;;;;;;;33.50;15.60;;;1.60;99.90;;;;;;5089267;28;20209;-76
2021/04/16 06:45:50;;;;;;;28.53;15.43;;;1.80;99.90;;;;;;5089151;28;20629;-76
2021/04/16 06:48:34;;;;;;;23.97;13.23;;;2.00;99.90;;;;;;5096408;28;20233;-76
2021/04/16 06:51:22;;;;;;;24.77;13.50;;;2.30;99.90;;;;;;5096998;28;20309;-75
2021/04/16 06:54:14;;;;;;;18.27;11.30;;;2.50;99.90;;;;;;5098493;28;20199;-75
2021/04/16 06:57:00;;;;;;;21.93;10.40;;;2.70;99.90;;;;;;5094659;28;20700;-75
2021/04/16 06:59:49;;;;;;;21.07;9.80;;;2.90;99.90;;;;;;5099419;28;20260;-76
2021/04/16 07:02:42;;;;;;;16.37;8.03;;;3.10;99.90;;;;;;5098826;28;20588;-76
2021/04/16 07:05:32;;;;;;;14.47;6.77;;;3.20;99.90;;;;;;5089960;28;20205;-75
2021/04/16 07:08:24;;;;;;;13.27;6.40;;;3.30;99.90;;;;;;5096670;28;20768;-76
2021/04/16 07:11:22;;;;;;;11.47;6.20;;;3.50;99.90;;;;;;5091265;28;20203;-75
2021/04/16 07:14:16;;;;;;;12.07;6.10;;;3.60;99.90;;;;;;5103231;28;20738;-76
2021/04/16 07:17:01;;;;;;;10.97;5.93;;;3.70;99.90;;;;;;5108752;28;20559;-76
2021/04/16 07:19:46;;;;;;;10.80;6.30;;;3.80;99.90;;;;;;5097181;28;20217;-75
2021/04/16 07:22:38;;;;;;;12.83;6.30;;;3.90;99.90;;;;;;5090975;28;20655;-76
2021/04/16 07:25:34;;;;;;;12.60;6.00;;;4.00;99.90;;;;;;5088266;28;20210;-76
2021/04/16 07:28:42;;;;;;;11.63;5.77;;;4.10;99.90;;;;;;5104235;28;20217;-76
2021/04/16 07:31:42;;;;;;;13.47;5.67;;;4.30;99.90;;;;;;5091529;28;20351;-76
2021/04/16 07:34:34;;;;;;;9.90;5.40;;;4.50;99.90;;;;;;5089228;28;20203;-75
2021/04/16 07:37:22;;;;;;;11.00;5.97;;;4.70;99.90;;;;;;5090427;28;20202;-76
2021/04/16 07:40:11;;;;;;;9.43;5.37;;;4.90;99.90;;;;;;5096003;28;20285;-75
2021/04/16 07:42:56;;;;;;;9.03;5.47;;;5.10;99.90;;;;;;5096195;28;20206;-75
2021/04/16 07:45:46;;;;;;;8.73;5.40;;;5.40;99.90;;;;;;5099907;28;20697;-75
2021/04/16 07:48:34;;;;;;;16.57;5.83;;;5.60;99.90;;;;;;5095307;28;20240;-75
2021/04/16 07:51:31;;;;;;;12.67;5.70;;;5.70;99.90;;;;;;5107953;28;20733;-75
2021/04/16 07:54:18;;;;;;;12.00;5.53;;;5.90;99.90;;;;;;5103565;28;20201;-76
2021/04/16 07:57:09;;;;;;;12.83;5.50;;;6.00;99.90;;;;;;5103322;28;20205;-76
2021/04/16 07:59:58;;;;;;;13.17;5.00;;;6.20;99.90;;;;;;5100242;28;20288;-76
2021/04/16 08:02:47;;;;;;;7.93;4.53;;;6.30;99.90;;;;;;5100680;28;20224;-76
2021/04/16 08:05:38;;;;;;;18.20;7.37;;;6.40;99.90;;;;;;5105247;28;20306;-76
2021/04/16 08:08:29;;;;;;;8.50;4.63;;;6.50;99.90;;;;;;5099885;28;20267;-76
2021/04/16 08:11:19;;;;;;;9.80;5.20;;;6.60;99.90;;;;;;5104057;28;20211;-76
2021/04/16 08:14:08;;;;;;;9.83;4.80;;;6.70;99.90;;;;;;5093194;28;20702;-76
2021/04/16 08:16:57;;;;;;;13.00;4.90;;;6.80;99.90;;;;;;5097486;28;20273;-76
2021/04/16 08:19:43;;;;;;;10.80;4.37;;;6.90;99.90;;;;;;5108878;28;20294;-76
2021/04/16 08:22:33;;;;;;;14.13;5.17;;;7.10;99.90;;;;;;5093191;28;20865;-76
2021/04/16 08:25:23;;;;;;;9.43;4.80;;;7.20;99.90;;;;;;5093633;28;20276;-76
2021/04/16 08:28:12;;;;;;;11.77;5.20;;;7.30;99.90;;;;;;5100474;28;20271;-76
2021/04/16 08:31:02;;;;;;;9.03;4.60;;;7.40;99.90;;;;;;5092298;28;20206;-76
2021/04/16 08:33:50;;;;;;;9.60;4.60;;;7.60;99.90;;;;;;5092293;28;20201;-76
2021/04/16 08:36:38;;;;;;;8.67;4.43;;;7.60;99.90;;;;;;5098923;28;20224;-76
2021/04/16 08:39:29;;;;;;;10.07;4.43;;;7.80;99.90;;;;;;5099774;28;20733;-76
2021/04/16 08:42:17;;;;;;;9.40;4.27;;;7.90;99.90;;;;;;5096519;28;20202;-76
2021/04/16 08:45:08;;;;;;;7.83;4.00;;;8.10;99.90;;;;;;5095823;28;20208;-76
2021/04/16 08:47:57;;;;;;;15.20;4.00;;;8.20;99.90;;;;;;5106020;28;20213;-76
2021/04/16 08:50:44;;;;;;;7.77;3.93;;;8.40;99.90;;;;;;5107229;28;20197;-76
2021/04/16 08:53:29;;;;;;;8.30;3.87;;;8.50;99.90;;;;;;5097070;28;20392;-76
2021/04/16 08:56:25;;;;;;;8.53;3.90;;;8.70;99.90;;;;;;5099383;28;20567;-76
2021/04/16 08:59:13;;;;;;;9.73;3.73;;;8.80;99.90;;;;;;5096298;28;20277;-76
2021/04/16 09:02:08;;;;;;;5.07;2.90;;;9.00;99.90;;;;;;5102442;28;20200;-76
2021/04/16 09:04:55;;;;;;;4.47;2.43;;;9.10;99.90;;;;;;5105281;28;20256;-76
2021/04/16 09:07:42;;;;;;;4.07;2.37;;;9.30;99.90;;;;;;5100962;28;20296;-76
2021/04/16 09:10:42;;;;;;;3.03;2.37;;;9.40;99.90;;;;;;5101647;28;20239;-76
2021/04/16 09:13:59;;;;;;;5.90;2.30;;;9.60;99.90;;;;;;5105064;28;20676;-76
2021/04/16 09:16:55;;;;;;;5.47;2.60;;;9.80;99.90;;;;;;5103105;28;20209;-76
2021/04/16 09:20:01;;;;;;;4.97;2.43;;;10.00;99.90;;;;;;5091899;28;20217;-77
2021/04/16 09:22:45;;;;;;;4.87;2.63;;;10.20;99.90;;;;;;5091711;28;20682;-77
2021/04/16 09:25:48;;;;;;;4.43;2.60;;;10.50;99.90;;;;;;5091442;28;20209;-77
2021/04/16 09:28:49;;;;;;;5.27;2.20;;;10.90;99.90;;;;;;5099595;28;20247;-77
2021/04/16 09:31:57;;;;;;;3.93;2.03;;;11.50;99.90;;;;;;5097528;28;20200;-77
2021/04/16 09:34:51;;;;;;;5.50;2.40;;;12.40;99.90;;;;;;5097028;28;20279;-77
2021/04/16 09:37:39;;;;;;;4.70;2.57;;;13.30;96.30;;;;;;5092895;28;20583;-77
2021/04/16 09:40:32;;;;;;;5.27;2.53;;;14.20;95.80;;;;;;5099226;28;20282;-77
2021/04/16 09:43:28;;;;;;;3.60;2.40;;;15.10;95.70;;;;;;5092951;28;20568;-77
2021/04/16 09:46:39;;;;;;;5.30;2.27;;;16.10;94.10;;;;;;5092111;28;20244;-78
2021/04/16 09:49:35;;;;;;;3.50;2.30;;;17.30;94.20;;;;;;5092844;28;20225;-78
2021/04/16 09:52:47;;;;;;;5.27;2.17;;;18.30;84.90;;;;;;5092921;28;20211;-77
2021/04/16 09:55:46;;;;;;;3.23;1.80;;;19.30;80.60;;;;;;5091391;28;20698;-78
2021/04/16 09:59:08;;;;;;;5.07;2.30;;;20.20;69.20;;;;;;5093355;28;20239;-78
2021/04/16 10:02:36;;;;;;;3.23;1.60;;;21.10;62.40;;;;;;5099386;28;20214;-78
2021/04/16 10:05:31;;;;;;;1.93;1.30;;;22.00;71.30;;;;;;5096380;28;20352;-78
2021/04/16 10:08:23;;;;;;;1.63;1.37;;;22.80;60.20;;;;;;5100328;28;20295;-77
2021/04/16 10:11:09;;;;;;;4.90;1.83;;;23.50;57.20;;;;;;5103669;28;20778;-78
2021/04/16 10:14:13;;;;;;;3.70;1.60;;;24.00;53.70;;;;;;5098518;28;20214;-77
2021/04/16 10:17:00;;;;;;;2.00;1.53;;;24.60;56.60;;;;;;5114981;28;20586;-77
2021/04/16 10:19:47;;;;;;;2.90;1.70;;;25.20;52.50;;;;;;5111223;28;20729;-77
2021/04/16 10:22:36;;;;;;;3.83;1.60;;;25.70;48.70;;;;;;5096718;28;20239;-77
2021/04/16 12:39:42;;;;;;;5.05;1.60;;;35.30;32.40;;;;;;5094533;28;20302;-78
2021/04/16 12:42:29;;;;;;;4.25;1.77;;;35.40;31.40;;;;;;5094713;28;20208;-78
2021/04/16 12:45:14;;;;;;;6.65;1.80;;;35.50;31.70;;;;;;5100840;28;20702;-78
2021/04/16 12:47:59;;;;;;;2.05;1.55;;;35.50;31.90;;;;;;5101566;28;20205;-78
2021/04/16 12:50:44;;;;;;;2.60;1.50;;;35.50;31.90;;;;;;5101718;28;20240;-78
2021/04/16 12:53:28;;;;;;;3.55;1.50;;;35.50;31.10;;;;;;5101389;28;20729;-78
2021/04/16 12:56:16;;;;;;;1.83;1.65;;;35.50;31.70;;;;;;5092775;28;20251;-78
2021/04/16 12:59:06;;;;;;;2.22;1.58;;;35.40;31.50;;;;;;5098305;28;20237;-78
2021/04/16 13:01:52;;;;;;;2.63;1.50;;;35.40;33.00;;;;;;5096677;28;20212;-79
2021/04/16 13:04:41;;;;;;;2.03;1.40;;;35.40;33.00;;;;;;5095086;28;20577;-78
2021/04/16 13:07:26;;;;;;;8.10;2.40;;;35.50;33.30;;;;;;5105023;28;20227;-78
2021/04/16 13:10:14;;;;;;;3.80;1.80;;;35.60;30.40;;;;;;5098510;28;20232;-79
2021/04/16 13:12:59;;;;;;;1.50;1.40;;;35.80;31.00;;;;;;5094846;28;20228;-78
2021/04/16 13:15:48;;;;;;;3.45;1.80;;;35.90;30.60;;;;;;5093479;28;20294;-79
2021/04/16 13:18:37;;;;;;;2.70;1.63;;;36.00;31.20;;;;;;5106194;28;20229;-78
2021/04/16 13:21:27;;;;;;;6.93;1.88;;;36.10;31.10;;;;;;5107910;28;20701;-78
2021/04/16 13:24:12;;;;;;;2.65;1.30;;;36.10;30.90;;;;;;5106009;28;20197;-78
2021/04/16 13:26:57;;;;;;;3.72;1.75;;;36.20;29.90;;;;;;5106323;28;20228;-78
2021/04/16 13:29:42;;;;;;;3.08;1.70;;;36.20;30.90;;;;;;5103504;28;20283;-78
2021/04/16 13:32:34;;;;;;;5.53;1.70;;;36.20;30.40;;;;;;5098285;28;20739;-78
2021/04/16 13:35:23;;;;;;;3.17;1.50;;;36.10;31.60;;;;;;5110938;28;20216;-78
2021/04/16 13:38:14;;;;;;;3.97;1.88;;;35.90;30.00;;;;;;5103663;28;20263;-78
2021/04/16 13:41:01;;;;;;;2.60;1.80;;;35.70;30.50;;;;;;5097894;28;20594;-78
2021/04/16 13:43:46;;;;;;;3.15;1.40;;;35.50;30.80;;;;;;5093202;28;20299;-78
2021/04/16 13:46:33;;;;;;;2.25;1.55;;;35.40;31.80;;;;;;5091994;28;20352;-78
2021/04/16 13:49:22;;;;;;;3.78;1.88;;;35.20;30.80;;;;;;5105726;28;20297;-77
2021/04/16 13:52:08;;;;;;;2.80;1.48;;;35.10;30.20;;;;;;5104573;28;20216;-77
2021/04/16 13:54:53;;;;;;;3.03;1.92;;;35.00;31.80;;;;;;5096779;28;20209;-77
2021/04/16 13:57:38;;;;;;;4.20;1.80;;;34.90;30.40;;;;;;5094029;28;20204;-77
2021/04/16 14:00:26;;;;;;;3.65;1.73;;;34.80;32.50;;;;;;5100173;28;20245;-77
2021/04/16 14:03:15;;;;;;;3.85;2.03;;;34.60;31.80;;;;;;5096145;28;20259;-77
2021/04/16 14:06:14;;;;;;;3.72;1.80;;;34.30;32.10;;;;;;5102606;28;20712;-76
2021/04/16 14:09:01;;;;;;;3.22;1.75;;;33.90;31.80;;;;;;5098686;28;20256;-77
2021/04/16 14:11:47;;;;;;;2.97;1.77;;;33.60;33.30;;;;;;5091313;28;20217;-78
2021/04/16 14:14:32;;;;;;;4.82;2.25;;;33.40;33.10;;;;;;5104825;28;20293;-77
2021/04/16 14:17:22;;;;;;;4.80;2.20;;;33.30;33.50;;;;;;5093148;28;20209;-76
2021/04/16 14:20:13;;;;;;;4.53;2.00;;;33.30;32.70;;;;;;5104510;28;20750;-77
2021/04/16 14:23:03;;;;;;;5.38;1.90;;;33.20;32.40;;;;;;5091831;28;20744;-77
2021/04/16 14:25:48;;;;;;;2.30;1.75;;;33.20;34.00;;;;;;5086447;28;20220;-77
2021/04/16 14:28:33;;;;;;;3.17;1.92;;;33.10;33.90;;;;;;5092792;28;20347;-77
2021/04/16 14:31:17;;;;;;;2.65;1.95;;;33.00;31.90;;;;;;5119015;22;20715;-83
2021/04/16 14:34:02;;;;;;;2.30;2.03;;;33.00;32.50;;;;;;5095298;28;20243;-83
2021/04/16 14:36:47;;;;;;;3.30;1.92;;;32.80;33.60;;;;;;5084967;28;20579;-83
2021/04/16 14:39:33;;;;;;;3.08;1.90;;;32.60;35.80;;;;;;5066746;28;20577;-83
2021/04/16 14:42:19;;;;;;;3.75;2.08;;;32.50;34.10;;;;;;5064744;28;20314;-83
2021/04/16 14:45:09;;;;;;;2.30;1.90;;;32.40;33.00;;;;;;5069830;28;20203;-83
2021/04/16 14:47:56;;;;;;;2.80;1.88;;;32.30;32.60;;;;;;5067293;28;20787;-83
2021/04/16 14:50:41;;;;;;;2.00;1.80;;;32.10;34.50;;;;;;5065852;28;20603;-83
2021/04/16 14:53:31;;;;;;;1.95;1.58;;;31.60;35.60;;;;;;5066128;28;20198;-83
2021/04/16 14:56:20;;;;;;;1.83;1.30;;;31.40;35.60;;;;;;5072791;28;20201;-84
2021/04/16 14:59:11;;;;;;;2.85;1.60;;;31.10;36.30;;;;;;5071026;28;20662;-83
2021/04/16 15:01:56;;;;;;;7.85;1.70;;;30.70;36.00;;;;;;5074927;28;20255;-82
2021/04/16 15:04:41;;;;;;;1.58;1.38;;;30.20;36.20;;;;;;5072333;28;20542;-83
2021/04/16 15:07:30;;;;;;;1.80;1.42;;;30.10;38.50;;;;;;5075142;28;20271;-85
2021/04/16 15:10:19;;;;;;;2.40;1.50;;;29.40;36.40;;;;;;5055812;28;20279;-83
2021/04/16 15:13:06;;;;;;;2.45;1.60;;;29.20;38.20;;;;;;5065527;28;20315;-83
2021/04/16 15:15:53;;;;;;;2.97;1.98;;;29.00;38.00;;;;;;5073612;28;20241;-83
2021/04/16 15:18:39;;;;;;;4.30;1.70;;;28.80;38.40;;;;;;5067405;28;20339;-83
2021/04/16 15:21:25;;;;;;;2.35;1.42;;;28.90;39.80;;;;;;5070821;28;20749;-82
2021/04/16 15:24:10;;;;;;;5.18;1.65;;;28.70;38.70;;;;;;5077283;28;20427;-83
2021/04/16 15:26:57;;;;;;;2.45;1.50;;;28.80;38.60;;;;;;5067311;28;20215;-84
2021/04/16 15:29:45;;;;;;;3.00;1.70;;;28.90;39.90;;;;;;5076509;28;20229;-83
2021/04/16 15:32:32;;;;;;;4.30;1.95;;;28.90;39.50;;;;;;5080217;28;20207;-83
2021/04/16 15:47:36;;;;;;;1.48;1.23;;;28.50;37.50;;;;;;5065220;28;20233;-83
2021/04/16 15:50:24;;;;;;;2.13;1.65;;;28.10;38.70;;;;;;5078820;28;20199;-83
2021/04/16 15:53:11;;;;;;;2.72;1.48;;;27.80;39.70;;;;;;5067820;28;20245;-82
2021/04/16 15:55:56;;;;;;;2.85;1.60;;;27.50;40.40;;;;;;5072707;28;20228;-83
2021/04/16 15:58:41;;;;;;;3.78;1.58;;;27.40;40.00;;;;;;5076222;28;20654;-85
2021/04/16 16:01:27;;;;;;;2.15;1.23;;;27.00;39.00;;;;;;5062961;28;20715;-85
2021/04/16 16:04:12;;;;;;;5.30;1.48;;;26.70;38.40;;;;;;5077010;28;20261;-84
2021/04/16 16:06:59;;;;;;;4.03;1.98;;;26.20;41.00;;;;;;5067624;28;20202;-85
2021/04/16 16:09:44;;;;;;;2.17;1.60;;;25.80;40.30;;;;;;5070014;28;20222;-85
2021/04/16 16:12:30;;;;;;;2.30;1.33;;;25.70;40.70;;;;;;5073951;28;20200;-85
2021/04/16 16:15:22;;;;;;;2.57;1.57;;;25.50;41.60;;;;;;5064320;28;20241;-85
2021/04/16 16:18:11;;;;;;;2.70;1.43;;;25.00;41.40;;;;;;5076646;28;20219;-83
2021/04/16 16:20:56;;;;;;;2.20;1.57;;;24.70;42.50;;;;;;5075357;28;20242;-83
2021/04/16 16:23:42;;;;;;;1.90;1.30;;;24.40;42.70;;;;;;5072027;28;20317;-83
2021/04/16 16:26:30;;;;;;;2.30;1.60;;;24.20;41.80;;;;;;5072460;28;20723;-84
2021/04/16 16:29:21;;;;;;;5.50;1.43;;;23.90;42.20;;;;;;5069759;28;20253;-84
2021/04/16 16:32:10;;;;;;;4.13;1.70;;;23.50;42.60;;;;;;5074423;28;20222;-84
2021/04/16 16:34:54;;;;;;;2.57;1.50;;;23.20;45.30;;;;;;5074212;28;20269;-84
2021/04/16 16:37:40;;;;;;;2.37;1.87;;;22.80;45.10;;;;;;5072754;28;20232;-84
2021/04/16 16:40:25;;;;;;;3.37;1.57;;;22.60;44.70;;;;;;5072082;28;20932;-84
2021/04/16 16:43:17;;;;;;;4.80;1.67;;;22.30;44.70;;;;;;5074110;28;20264;-85
2021/04/16 16:46:05;;;;;;;2.90;1.53;;;22.10;45.60;;;;;;5072561;28;20204;-84
2021/04/16 16:48:51;;;;;;;2.87;1.40;;;21.80;46.20;;;;;;5073596;28;20270;-84
2021/04/16 16:51:36;;;;;;;2.80;1.40;;;21.50;46.20;;;;;;5072702;28;20262;-85
2021/04/16 16:54:22;;;;;;;3.17;1.80;;;21.20;46.60;;;;;;5068686;28;20206;-84
2021/04/16 16:57:09;;;;;;;3.93;1.70;;;20.90;46.80;;;;;;5071937;28;20252;-86
2021/04/16 16:59:55;;;;;;;5.07;1.37;;;20.80;47.70;;;;;;5073415;28;20241;-85
2021/04/16 17:02:40;;;;;;;5.27;1.53;;;20.40;48.30;;;;;;5073990;28;20296;-84
2021/04/16 17:05:25;;;;;;;3.83;1.50;;;20.20;48.50;;;;;;5064119;28;20262;-85